Montmorenci, Indiana
Current Conditions -  °F | °C
As of 6:54 AM on Saturday 25 Oct 2014 (Local Time) from KLAF Reporting Station
Scattered Clouds Scattered Clouds  
Wind Chill: 53°   Ceiling: Unl
Heat Index: 53°   Visibility: 10mi
Dew Point: 51°   Wind: 3mph
Humidity: 93%   Direction: 250°WSW
Pressure: 29.95"   Gusts: NA
Location:  40.47°N, 87.03°W
Report Text: KLAF 251054Z 25003KT 10SM SCT026 SCT037 12/11 A2995 RMK AO2 SLP140 T01170106
Loading
Personal Weather Stations






























Interactive Weather Map
Tropical Storm Tracking
New forecast layout! Learn more

10-Day Weather Forecast

Advertisements
Track Severe Weather on mobile